sensor_id;sensor_type;location;lat;lon;timestamp;temperature;humidity
69084;SHT31;56185;48.526;9.044;2022-09-14T00:00:47;20.87;69.22
69084;SHT31;56185;48.526;9.044;2022-09-14T00:03:13;20.90;70.68
69084;SHT31;56185;48.526;9.044;2022-09-14T00:05:39;20.88;70.54
69084;SHT31;56185;48.526;9.044;2022-09-14T00:08:04;20.75;69.86
69084;SHT31;56185;48.526;9.044;2022-09-14T00:10:29;20.78;70.86
69084;SHT31;56185;48.526;9.044;2022-09-14T00:12:55;20.91;71.13
69084;SHT31;56185;48.526;9.044;2022-09-14T00:15:20;20.90;70.84
69084;SHT31;56185;48.526;9.044;2022-09-14T00:17:46;20.90;71.49
69084;SHT31;56185;48.526;9.044;2022-09-14T00:20:11;20.78;72.02
69084;SHT31;56185;48.526;9.044;2022-09-14T00:22:37;20.87;71.85
69084;SHT31;56185;48.526;9.044;2022-09-14T00:25:02;20.91;72.30
69084;SHT31;56185;48.526;9.044;2022-09-14T00:27:27;20.78;71.74
69084;SHT31;56185;48.526;9.044;2022-09-14T00:29:53;20.78;71.74
69084;SHT31;56185;48.526;9.044;2022-09-14T00:32:18;20.80;71.79
69084;SHT31;56185;48.526;9.044;2022-09-14T00:34:43;20.73;72.63
69084;SHT31;56185;48.526;9.044;2022-09-14T00:37:10;20.66;72.20
69084;SHT31;56185;48.526;9.044;2022-09-14T00:39:35;20.50;72.91
69084;SHT31;56185;48.526;9.044;2022-09-14T00:42:00;20.57;72.74
69084;SHT31;56185;48.526;9.044;2022-09-14T00:46:53;20.61;72.01
69084;SHT31;56185;48.526;9.044;2022-09-14T00:49:26;20.68;72.08
69084;SHT31;56185;48.526;9.044;2022-09-14T00:51:58;20.75;71.65
69084;SHT31;56185;48.526;9.044;2022-09-14T00:54:25;20.83;71.32
69084;SHT31;56185;48.526;9.044;2022-09-14T00:56:50;20.81;70.96
69084;SHT31;56185;48.526;9.044;2022-09-14T00:59:19;20.78;70.85
69084;SHT31;56185;48.526;9.044;2022-09-14T01:01:46;20.80;70.88
69084;SHT31;56185;48.526;9.044;2022-09-14T01:04:11;20.90;70.32
69084;SHT31;56185;48.526;9.044;2022-09-14T01:06:53;20.77;70.79
69084;SHT31;56185;48.526;9.044;2022-09-14T01:09:30;20.80;71.65
69084;SHT31;56185;48.526;9.044;2022-09-14T01:14:59;20.70;73.35
69084;SHT31;56185;48.526;9.044;2022-09-14T01:17:48;20.70;74.59
69084;SHT31;56185;48.526;9.044;2022-09-14T01:20:52;20.60;75.45
69084;SHT31;56185;48.526;9.044;2022-09-14T01:23:29;20.63;74.93
69084;SHT31;56185;48.526;9.044;2022-09-14T01:31:29;20.81;73.91
69084;SHT31;56185;48.526;9.044;2022-09-14T01:34:04;20.47;76.09
69084;SHT31;56185;48.526;9.044;2022-09-14T01:36:34;20.44;73.75
69084;SHT31;56185;48.526;9.044;2022-09-14T01:39:01;20.40;75.02
69084;SHT31;56185;48.526;9.044;2022-09-14T01:41:28;20.34;75.56
69084;SHT31;56185;48.526;9.044;2022-09-14T01:44:15;20.27;75.12
69084;SHT31;56185;48.526;9.044;2022-09-14T01:46:46;20.40;75.56
69084;SHT31;56185;48.526;9.044;2022-09-14T01:49:24;20.40;76.41
69084;SHT31;56185;48.526;9.044;2022-09-14T01:52:04;20.51;75.11
69084;SHT31;56185;48.526;9.044;2022-09-14T01:57:20;20.34;75.85
69084;SHT31;56185;48.526;9.044;2022-09-14T01:59:50;20.39;75.62
69084;SHT31;56185;48.526;9.044;2022-09-14T02:02:28;20.17;76.49
69084;SHT31;56185;48.526;9.044;2022-09-14T02:05:22;20.04;76.90
69084;SHT31;56185;48.526;9.044;2022-09-14T02:07:48;20.13;77.08
69084;SHT31;56185;48.526;9.044;2022-09-14T02:10:15;20.09;77.08
69084;SHT31;56185;48.526;9.044;2022-09-14T02:12:41;20.17;75.95
69084;SHT31;56185;48.526;9.044;2022-09-14T02:15:09;20.16;76.91
69084;SHT31;56185;48.526;9.044;2022-09-14T02:17:35;20.16;77.54
69084;SHT31;56185;48.526;9.044;2022-09-14T02:20:03;20.08;76.92
69084;SHT31;56185;48.526;9.044;2022-09-14T02:22:30;20.09;77.28
69084;SHT31;56185;48.526;9.044;2022-09-14T02:24:55;19.92;77.32
69084;SHT31;56185;48.526;9.044;2022-09-14T02:27:21;19.99;78.05
69084;SHT31;56185;48.526;9.044;2022-09-14T02:29:46;20.06;77.36
69084;SHT31;56185;48.526;9.044;2022-09-14T02:35:13;20.02;77.51
69084;SHT31;56185;48.526;9.044;2022-09-14T02:40:33;20.17;76.08
69084;SHT31;56185;48.526;9.044;2022-09-14T02:45:33;19.96;77.98
69084;SHT31;56185;48.526;9.044;2022-09-14T02:48:11;19.96;77.44
69084;SHT31;56185;48.526;9.044;2022-09-14T02:56:18;19.92;79.11
69084;SHT31;56185;48.526;9.044;2022-09-14T02:58:44;19.74;79.52
69084;SHT31;56185;48.526;9.044;2022-09-14T03:01:16;19.50;81.52
69084;SHT31;56185;48.526;9.044;2022-09-14T03:03:41;19.41;83.00
69084;SHT31;56185;48.526;9.044;2022-09-14T03:06:06;19.39;82.66
69084;SHT31;56185;48.526;9.044;2022-09-14T03:08:32;19.34;84.56
69084;SHT31;56185;48.526;9.044;2022-09-14T03:10:57;19.44;84.26
69084;SHT31;56185;48.526;9.044;2022-09-14T03:13:22;19.41;84.01
69084;SHT31;56185;48.526;9.044;2022-09-14T03:15:48;19.39;83.81
69084;SHT31;56185;48.526;9.044;2022-09-14T03:18:13;19.35;83.02
69084;SHT31;56185;48.526;9.044;2022-09-14T03:20:38;19.46;82.92
69084;SHT31;56185;48.526;9.044;2022-09-14T03:23:04;19.44;84.52
69084;SHT31;56185;48.526;9.044;2022-09-14T03:25:30;19.61;83.58
69084;SHT31;56185;48.526;9.044;2022-09-14T03:27:59;19.51;85.55
69084;SHT31;56185;48.526;9.044;2022-09-14T03:30:25;19.46;86.60
69084;SHT31;56185;48.526;9.044;2022-09-14T03:32:51;19.43;87.63
69084;SHT31;56185;48.526;9.044;2022-09-14T03:35:17;19.24;88.18
69084;SHT31;56185;48.526;9.044;2022-09-14T03:37:43;19.23;87.97
69084;SHT31;56185;48.526;9.044;2022-09-14T03:40:10;19.21;88.46
69084;SHT31;56185;48.526;9.044;2022-09-14T03:42:36;19.34;87.38
69084;SHT31;56185;48.526;9.044;2022-09-14T03:45:05;19.50;86.87
69084;SHT31;56185;48.526;9.044;2022-09-14T03:47:32;19.50;85.16
69084;SHT31;56185;48.526;9.044;2022-09-14T03:49:57;19.67;84.19
69084;SHT31;56185;48.526;9.044;2022-09-14T03:52:22;19.74;83.50
69084;SHT31;56185;48.526;9.044;2022-09-14T03:54:47;19.31;85.75
69084;SHT31;56185;48.526;9.044;2022-09-14T03:57:14;19.27;87.23
69084;SHT31;56185;48.526;9.044;2022-09-14T03:59:39;19.28;86.53
69084;SHT31;56185;48.526;9.044;2022-09-14T04:02:04;19.23;85.98
69084;SHT31;56185;48.526;9.044;2022-09-14T04:04:30;19.18;86.01
69084;SHT31;56185;48.526;9.044;2022-09-14T04:06:55;19.09;86.59
69084;SHT31;56185;48.526;9.044;2022-09-14T04:09:21;19.13;86.80
69084;SHT31;56185;48.526;9.044;2022-09-14T04:11:47;19.11;86.44
69084;SHT31;56185;48.526;9.044;2022-09-14T04:14:13;19.13;87.47
69084;SHT31;56185;48.526;9.044;2022-09-14T04:16:39;19.17;86.49
69084;SHT31;56185;48.526;9.044;2022-09-14T04:19:05;19.23;86.43
69084;SHT31;56185;48.526;9.044;2022-09-14T04:21:31;19.20;85.92
69084;SHT31;56185;48.526;9.044;2022-09-14T04:23:57;19.30;86.40
69084;SHT31;56185;48.526;9.044;2022-09-14T04:26:25;19.26;86.97
69084;SHT31;56185;48.526;9.044;2022-09-14T04:28:50;19.28;85.47
69084;SHT31;56185;48.526;9.044;2022-09-14T04:31:15;19.21;85.95
69084;SHT31;56185;48.526;9.044;2022-09-14T04:33:42;19.41;85.74
69084;SHT31;56185;48.526;9.044;2022-09-14T04:36:11;19.38;86.22
69084;SHT31;56185;48.526;9.044;2022-09-14T04:38:39;19.39;86.25
69084;SHT31;56185;48.526;9.044;2022-09-14T04:41:11;19.37;85.94
69084;SHT31;56185;48.526;9.044;2022-09-14T04:43:37;19.43;85.79
69084;SHT31;56185;48.526;9.044;2022-09-14T04:46:04;19.30;85.90
69084;SHT31;56185;48.526;9.044;2022-09-14T04:48:31;19.18;87.00
69084;SHT31;56185;48.526;9.044;2022-09-14T04:51:02;19.23;87.07
69084;SHT31;56185;48.526;9.044;2022-09-14T04:53:27;19.51;85.23
69084;SHT31;56185;48.526;9.044;2022-09-14T04:55:58;19.44;88.22
69084;SHT31;56185;48.526;9.044;2022-09-14T04:58:23;19.61;86.37
69084;SHT31;56185;48.526;9.044;2022-09-14T05:00:48;19.46;88.48
69084;SHT31;56185;48.526;9.044;2022-09-14T05:03:13;19.21;89.09
69084;SHT31;56185;48.526;9.044;2022-09-14T05:05:39;19.26;88.50
69084;SHT31;56185;48.526;9.044;2022-09-14T05:08:04;19.32;87.54
69084;SHT31;56185;48.526;9.044;2022-09-14T05:10:29;19.37;87.29
69084;SHT31;56185;48.526;9.044;2022-09-14T05:12:55;19.35;87.42
69084;SHT31;56185;48.526;9.044;2022-09-14T05:15:20;19.37;87.72
69084;SHT31;56185;48.526;9.044;2022-09-14T05:17:45;19.35;87.71
69084;SHT31;56185;48.526;9.044;2022-09-14T05:20:10;19.23;88.87
69084;SHT31;56185;48.526;9.044;2022-09-14T05:22:36;19.24;88.75
69084;SHT31;56185;48.526;9.044;2022-09-14T05:25:01;19.37;88.06
69084;SHT31;56185;48.526;9.044;2022-09-14T05:27:26;19.44;87.89
69084;SHT31;56185;48.526;9.044;2022-09-14T05:29:51;19.39;87.78
69084;SHT31;56185;48.526;9.044;2022-09-14T05:32:16;19.41;87.43
69084;SHT31;56185;48.526;9.044;2022-09-14T05:34:42;19.46;87.49
69084;SHT31;56185;48.526;9.044;2022-09-14T05:37:10;19.44;87.78
69084;SHT31;56185;48.526;9.044;2022-09-14T05:39:35;19.44;87.60
69084;SHT31;56185;48.526;9.044;2022-09-14T05:42:00;19.48;88.02
69084;SHT31;56185;48.526;9.044;2022-09-14T05:44:26;19.46;87.98
69084;SHT31;56185;48.526;9.044;2022-09-14T05:46:51;19.48;88.24
69084;SHT31;56185;48.526;9.044;2022-09-14T05:49:16;19.62;86.15
69084;SHT31;56185;48.526;9.044;2022-09-14T05:51:41;19.64;86.24
69084;SHT31;56185;48.526;9.044;2022-09-14T05:54:07;19.68;87.05
69084;SHT31;56185;48.526;9.044;2022-09-14T05:56:32;19.71;86.50
69084;SHT31;56185;48.526;9.044;2022-09-14T05:58:57;19.67;86.90
69084;SHT31;56185;48.526;9.044;2022-09-14T06:01:25;19.69;86.68
69084;SHT31;56185;48.526;9.044;2022-09-14T06:03:55;19.75;85.86
69084;SHT31;56185;48.526;9.044;2022-09-14T06:06:21;19.72;86.58
69084;SHT31;56185;48.526;9.044;2022-09-14T06:08:48;19.83;86.08
69084;SHT31;56185;48.526;9.044;2022-09-14T06:11:15;19.83;86.09
69084;SHT31;56185;48.526;9.044;2022-09-14T06:13:41;19.92;85.64
69084;SHT31;56185;48.526;9.044;2022-09-14T06:16:10;19.88;85.81
69084;SHT31;56185;48.526;9.044;2022-09-14T06:18:37;19.95;86.36
69084;SHT31;56185;48.526;9.044;2022-09-14T06:21:03;19.92;85.97
69084;SHT31;56185;48.526;9.044;2022-09-14T06:23:29;19.92;86.20
69084;SHT31;56185;48.526;9.044;2022-09-14T06:25:56;19.86;86.36
69084;SHT31;56185;48.526;9.044;2022-09-14T06:28:22;19.93;86.95
69084;SHT31;56185;48.526;9.044;2022-09-14T06:30:48;19.88;87.03
69084;SHT31;56185;48.526;9.044;2022-09-14T06:33:13;19.86;87.40
69084;SHT31;56185;48.526;9.044;2022-09-14T06:35:38;19.79;87.57
69084;SHT31;56185;48.526;9.044;2022-09-14T06:38:04;19.88;87.40
69084;SHT31;56185;48.526;9.044;2022-09-14T06:40:29;19.95;87.62
69084;SHT31;56185;48.526;9.044;2022-09-14T06:42:54;20.00;87.46
69084;SHT31;56185;48.526;9.044;2022-09-14T06:45:19;19.96;87.80
69084;SHT31;56185;48.526;9.044;2022-09-14T06:47:45;20.00;88.00
69084;SHT31;56185;48.526;9.044;2022-09-14T06:50:10;20.13;87.34
69084;SHT31;56185;48.526;9.044;2022-09-14T06:52:35;20.15;86.89
69084;SHT31;56185;48.526;9.044;2022-09-14T06:55:01;20.16;87.52
69084;SHT31;56185;48.526;9.044;2022-09-14T06:57:26;20.25;86.96
69084;SHT31;56185;48.526;9.044;2022-09-14T06:59:51;20.27;87.60
69084;SHT31;56185;48.526;9.044;2022-09-14T07:02:17;20.26;87.99
69084;SHT31;56185;48.526;9.044;2022-09-14T07:04:42;20.34;87.61
69084;SHT31;56185;48.526;9.044;2022-09-14T07:07:07;20.47;86.71
69084;SHT31;56185;48.526;9.044;2022-09-14T07:09:32;20.48;85.75
69084;SHT31;56185;48.526;9.044;2022-09-14T07:11:58;20.53;86.83
69084;SHT31;56185;48.526;9.044;2022-09-14T07:14:23;20.57;86.03
69084;SHT31;56185;48.526;9.044;2022-09-14T07:16:48;20.67;85.98
69084;SHT31;56185;48.526;9.044;2022-09-14T07:19:14;20.61;86.35
69084;SHT31;56185;48.526;9.044;2022-09-14T07:21:40;20.58;86.35
69084;SHT31;56185;48.526;9.044;2022-09-14T07:24:05;20.68;85.75
69084;SHT31;56185;48.526;9.044;2022-09-14T07:26:38;20.73;85.40
69084;SHT31;56185;48.526;9.044;2022-09-14T07:29:06;20.67;86.45
69084;SHT31;56185;48.526;9.044;2022-09-14T07:34:05;20.70;86.09
69084;SHT31;56185;48.526;9.044;2022-09-14T07:36:33;20.83;87.12
69084;SHT31;56185;48.526;9.044;2022-09-14T07:38:59;20.90;87.41
69084;SHT31;56185;48.526;9.044;2022-09-14T07:41:28;20.92;87.30
69084;SHT31;56185;48.526;9.044;2022-09-14T07:43:55;20.98;87.39
69084;SHT31;56185;48.526;9.044;2022-09-14T07:46:21;21.08;85.82
69084;SHT31;56185;48.526;9.044;2022-09-14T07:48:47;21.15;87.32
69084;SHT31;56185;48.526;9.044;2022-09-14T07:51:13;21.25;86.15
69084;SHT31;56185;48.526;9.044;2022-09-14T07:53:40;21.32;86.10
69084;SHT31;56185;48.526;9.044;2022-09-14T07:56:06;21.47;86.07
69084;SHT31;56185;48.526;9.044;2022-09-14T07:58:31;21.62;85.68
69084;SHT31;56185;48.526;9.044;2022-09-14T08:01:03;21.64;86.52
69084;SHT31;56185;48.526;9.044;2022-09-14T08:03:29;21.72;86.03
69084;SHT31;56185;48.526;9.044;2022-09-14T08:06:02;21.82;85.49
69084;SHT31;56185;48.526;9.044;2022-09-14T08:08:30;21.92;85.87
69084;SHT31;56185;48.526;9.044;2022-09-14T08:11:05;22.03;86.16
69084;SHT31;56185;48.526;9.044;2022-09-14T08:13:32;22.11;84.47
69084;SHT31;56185;48.526;9.044;2022-09-14T08:15:57;22.14;84.86
69084;SHT31;56185;48.526;9.044;2022-09-14T08:18:22;22.25;83.44
69084;SHT31;56185;48.526;9.044;2022-09-14T08:20:48;22.27;84.36
69084;SHT31;56185;48.526;9.044;2022-09-14T08:23:13;22.34;84.26
69084;SHT31;56185;48.526;9.044;2022-09-14T08:25:38;22.41;83.75
69084;SHT31;56185;48.526;9.044;2022-09-14T08:28:03;22.49;83.72
69084;SHT31;56185;48.526;9.044;2022-09-14T08:30:29;22.56;82.91
69084;SHT31;56185;48.526;9.044;2022-09-14T08:32:54;22.58;82.64
69084;SHT31;56185;48.526;9.044;2022-09-14T08:35:19;22.63;82.14
69084;SHT31;56185;48.526;9.044;2022-09-14T08:37:44;22.62;80.09
69084;SHT31;56185;48.526;9.044;2022-09-14T08:40:11;22.61;81.27
69084;SHT31;56185;48.526;9.044;2022-09-14T08:42:37;22.63;81.97
69084;SHT31;56185;48.526;9.044;2022-09-14T08:45:04;22.65;81.74
69084;SHT31;56185;48.526;9.044;2022-09-14T08:47:33;22.75;78.84
69084;SHT31;56185;48.526;9.044;2022-09-14T08:52:30;22.86;79.31
69084;SHT31;56185;48.526;9.044;2022-09-14T08:55:01;23.02;79.50
69084;SHT31;56185;48.526;9.044;2022-09-14T09:00:32;22.89;79.72
69084;SHT31;56185;48.526;9.044;2022-09-14T09:05:37;23.34;79.04
69084;SHT31;56185;48.526;9.044;2022-09-14T09:10:53;23.64;76.10
69084;SHT31;56185;48.526;9.044;2022-09-14T09:13:21;23.77;75.87
69084;SHT31;56185;48.526;9.044;2022-09-14T09:15:52;23.79;77.21
69084;SHT31;56185;48.526;9.044;2022-09-14T09:21:00;23.68;74.60
69084;SHT31;56185;48.526;9.044;2022-09-14T09:23:28;23.62;75.64
69084;SHT31;56185;48.526;9.044;2022-09-14T09:28:48;23.79;74.55
69084;SHT31;56185;48.526;9.044;2022-09-14T09:31:15;23.92;75.51
69084;SHT31;56185;48.526;9.044;2022-09-14T09:33:41;24.10;75.19
69084;SHT31;56185;48.526;9.044;2022-09-14T09:36:11;24.20;72.25
69084;SHT31;56185;48.526;9.044;2022-09-14T09:38:37;24.40;72.81
69084;SHT31;56185;48.526;9.044;2022-09-14T09:41:14;24.50;73.55
69084;SHT31;56185;48.526;9.044;2022-09-14T09:44:01;24.76;70.94
69084;SHT31;56185;48.526;9.044;2022-09-14T09:46:29;24.92;70.82
69084;SHT31;56185;48.526;9.044;2022-09-14T09:48:56;25.01;72.03
69084;SHT31;56185;48.526;9.044;2022-09-14T09:51:30;25.24;69.52
69084;SHT31;56185;48.526;9.044;2022-09-14T09:56:31;25.52;68.55
69084;SHT31;56185;48.526;9.044;2022-09-14T09:58:57;25.58;68.14
69084;SHT31;56185;48.526;9.044;2022-09-14T10:01:28;25.70;68.62
69084;SHT31;56185;48.526;9.044;2022-09-14T10:04:16;25.58;68.36
69084;SHT31;56185;48.526;9.044;2022-09-14T10:06:44;25.69;67.42
69084;SHT31;56185;48.526;9.044;2022-09-14T10:09:18;25.85;69.07
69084;SHT31;56185;48.526;9.044;2022-09-14T10:11:45;25.96;67.77
69084;SHT31;56185;48.526;9.044;2022-09-14T10:14:28;25.96;66.32
69084;SHT31;56185;48.526;9.044;2022-09-14T10:17:07;25.90;65.17
69084;SHT31;56185;48.526;9.044;2022-09-14T10:19:40;25.75;64.15
69084;SHT31;56185;48.526;9.044;2022-09-14T10:22:30;25.75;65.33
69084;SHT31;56185;48.526;9.044;2022-09-14T10:27:47;25.82;65.23
69084;SHT31;56185;48.526;9.044;2022-09-14T10:30:17;25.82;63.75
69084;SHT31;56185;48.526;9.044;2022-09-14T10:33:04;25.83;64.57
69084;SHT31;56185;48.526;9.044;2022-09-14T10:38:35;25.73;64.34
69084;SHT31;56185;48.526;9.044;2022-09-14T10:41:23;25.76;65.18
69084;SHT31;56185;48.526;9.044;2022-09-14T10:49:40;25.83;61.52
69084;SHT31;56185;48.526;9.044;2022-09-14T11:00:17;26.04;60.09
69084;SHT31;56185;48.526;9.044;2022-09-14T11:05:35;25.90;60.07
69084;SHT31;56185;48.526;9.044;2022-09-14T11:14:28;25.72;58.29
69084;SHT31;56185;48.526;9.044;2022-09-14T11:20:08;25.65;59.51
69084;SHT31;56185;48.526;9.044;2022-09-14T11:25:21;25.58;61.23
69084;SHT31;56185;48.526;9.044;2022-09-14T11:27:53;25.67;60.78
69084;SHT31;56185;48.526;9.044;2022-09-14T11:30:23;25.61;60.67
69084;SHT31;56185;48.526;9.044;2022-09-14T11:32:54;25.62;59.98
69084;SHT31;56185;48.526;9.044;2022-09-14T11:37:55;25.75;61.14
69084;SHT31;56185;48.526;9.044;2022-09-14T11:40:34;25.72;61.15
69084;SHT31;56185;48.526;9.044;2022-09-14T11:43:08;25.75;60.99
69084;SHT31;56185;48.526;9.044;2022-09-14T11:45:46;25.75;61.65
69084;SHT31;56185;48.526;9.044;2022-09-14T11:48:29;25.77;60.75
69084;SHT31;56185;48.526;9.044;2022-09-14T11:51:14;25.75;61.89
69084;SHT31;56185;48.526;9.044;2022-09-14T11:53:42;25.77;61.62
69084;SHT31;56185;48.526;9.044;2022-09-14T11:56:23;25.83;61.07
69084;SHT31;56185;48.526;9.044;2022-09-14T11:58:49;25.77;60.92
69084;SHT31;56185;48.526;9.044;2022-09-14T12:04:14;25.66;59.90
69084;SHT31;56185;48.526;9.044;2022-09-14T12:06:42;25.61;61.00
69084;SHT31;56185;48.526;9.044;2022-09-14T12:11:43;25.46;62.60
69084;SHT31;56185;48.526;9.044;2022-09-14T12:14:14;25.41;63.73
69084;SHT31;56185;48.526;9.044;2022-09-14T12:17:05;25.27;64.68
69084;SHT31;56185;48.526;9.044;2022-09-14T12:19:31;24.95;65.40
69084;SHT31;56185;48.526;9.044;2022-09-14T12:24:42;24.52;67.25
69084;SHT31;56185;48.526;9.044;2022-09-14T12:27:19;24.35;68.87
69084;SHT31;56185;48.526;9.044;2022-09-14T12:29:45;24.25;71.39
69084;SHT31;56185;48.526;9.044;2022-09-14T12:32:26;24.05;71.52
69084;SHT31;56185;48.526;9.044;2022-09-14T12:59:22;23.33;74.85
69084;SHT31;56185;48.526;9.044;2022-09-14T13:02:33;23.27;74.72
69084;SHT31;56185;48.526;9.044;2022-09-14T13:04:38;23.00;74.80
69084;SHT31;56185;48.526;9.044;2022-09-14T13:07:05;23.02;75.93
69084;SHT31;56185;48.526;9.044;2022-09-14T13:09:32;22.73;75.50
69084;SHT31;56185;48.526;9.044;2022-09-14T13:12:06;22.66;78.05
69084;SHT31;56185;48.526;9.044;2022-09-14T13:14:51;22.61;78.01
69084;SHT31;56185;48.526;9.044;2022-09-14T13:17:18;22.56;77.78
69084;SHT31;56185;48.526;9.044;2022-09-14T13:19:53;22.47;77.92
69084;SHT31;56185;48.526;9.044;2022-09-14T13:22:21;22.32;78.86
69084;SHT31;56185;48.526;9.044;2022-09-14T13:24:47;22.30;79.21
69084;SHT31;56185;48.526;9.044;2022-09-14T13:27:31;22.32;79.20
69084;SHT31;56185;48.526;9.044;2022-09-14T13:30:03;22.40;79.38
69084;SHT31;56185;48.526;9.044;2022-09-14T13:32:29;22.53;77.88
69084;SHT31;56185;48.526;9.044;2022-09-14T13:34:54;22.49;77.79
69084;SHT31;56185;48.526;9.044;2022-09-14T13:37:22;22.51;78.84
69084;SHT31;56185;48.526;9.044;2022-09-14T13:39:50;22.53;78.32
69084;SHT31;56185;48.526;9.044;2022-09-14T13:42:16;22.55;78.10
69084;SHT31;56185;48.526;9.044;2022-09-14T13:44:43;22.42;77.15
69084;SHT31;56185;48.526;9.044;2022-09-14T13:47:12;22.41;78.59
69084;SHT31;56185;48.526;9.044;2022-09-14T13:49:39;22.42;77.84
69084;SHT31;56185;48.526;9.044;2022-09-14T13:54:49;22.38;78.53
69084;SHT31;56185;48.526;9.044;2022-09-14T13:57:17;22.30;78.46
69084;SHT31;56185;48.526;9.044;2022-09-14T14:03:02;22.37;78.42
69084;SHT31;56185;48.526;9.044;2022-09-14T14:05:33;22.32;77.74
69084;SHT31;56185;48.526;9.044;2022-09-14T14:08:00;22.32;77.12
69084;SHT31;56185;48.526;9.044;2022-09-14T14:10:33;22.24;76.06
69084;SHT31;56185;48.526;9.044;2022-09-14T14:13:00;22.22;76.02
69084;SHT31;56185;48.526;9.044;2022-09-14T14:17:52;22.13;76.87
69084;SHT31;56185;48.526;9.044;2022-09-14T14:20:35;22.00;76.35
69084;SHT31;56185;48.526;9.044;2022-09-14T14:23:17;21.97;76.76
69084;SHT31;56185;48.526;9.044;2022-09-14T14:25:45;21.82;75.34
69084;SHT31;56185;48.526;9.044;2022-09-14T14:30:46;21.86;77.28
69084;SHT31;56185;48.526;9.044;2022-09-14T14:33:13;21.76;75.56
69084;SHT31;56185;48.526;9.044;2022-09-14T14:35:39;21.79;75.66
69084;SHT31;56185;48.526;9.044;2022-09-14T14:38:04;21.84;76.79
69084;SHT31;56185;48.526;9.044;2022-09-14T14:40:31;21.73;76.96
69084;SHT31;56185;48.526;9.044;2022-09-14T14:42:57;21.60;76.70
69084;SHT31;56185;48.526;9.044;2022-09-14T14:45:25;21.49;77.48
69084;SHT31;56185;48.526;9.044;2022-09-14T14:47:52;21.28;76.61
69084;SHT31;56185;48.526;9.044;2022-09-14T14:50:21;21.33;78.51
69084;SHT31;56185;48.526;9.044;2022-09-14T14:52:47;21.26;78.28
69084;SHT31;56185;48.526;9.044;2022-09-14T14:55:13;21.25;78.57
69084;SHT31;56185;48.526;9.044;2022-09-14T14:57:38;21.22;79.04
69084;SHT31;56185;48.526;9.044;2022-09-14T15:00:05;21.22;79.34
69084;SHT31;56185;48.526;9.044;2022-09-14T15:02:35;21.33;78.38
69084;SHT31;56185;48.526;9.044;2022-09-14T15:05:00;21.32;78.27
69084;SHT31;56185;48.526;9.044;2022-09-14T15:07:26;21.39;78.18
69084;SHT31;56185;48.526;9.044;2022-09-14T15:09:51;21.22;78.83
69084;SHT31;56185;48.526;9.044;2022-09-14T15:12:16;21.04;77.84
69084;SHT31;56185;48.526;9.044;2022-09-14T15:14:41;21.02;79.41
69084;SHT31;56185;48.526;9.044;2022-09-14T15:17:06;21.08;79.39
69084;SHT31;56185;48.526;9.044;2022-09-14T15:19:32;20.92;80.49
69084;SHT31;56185;48.526;9.044;2022-09-14T15:21:57;21.05;77.50
69084;SHT31;56185;48.526;9.044;2022-09-14T15:24:22;20.96;78.31
69084;SHT31;56185;48.526;9.044;2022-09-14T15:26:47;21.02;79.06
69084;SHT31;56185;48.526;9.044;2022-09-14T15:29:13;21.09;78.29
69084;SHT31;56185;48.526;9.044;2022-09-14T15:31:41;21.01;77.92
69084;SHT31;56185;48.526;9.044;2022-09-14T15:34:06;20.88;78.15
69084;SHT31;56185;48.526;9.044;2022-09-14T15:36:41;20.85;78.00
69084;SHT31;56185;48.526;9.044;2022-09-14T15:39:11;20.80;77.98
69084;SHT31;56185;48.526;9.044;2022-09-14T15:41:37;20.68;77.51
69084;SHT31;56185;48.526;9.044;2022-09-14T15:44:02;20.61;78.79
69084;SHT31;56185;48.526;9.044;2022-09-14T15:46:29;20.80;79.29
69084;SHT31;56185;48.526;9.044;2022-09-14T15:48:54;20.83;79.42
69084;SHT31;56185;48.526;9.044;2022-09-14T15:51:20;20.88;78.77
69084;SHT31;56185;48.526;9.044;2022-09-14T15:53:45;20.94;77.84
69084;SHT31;56185;48.526;9.044;2022-09-14T15:56:11;20.90;78.32
69084;SHT31;56185;48.526;9.044;2022-09-14T15:58:37;20.95;79.01
69084;SHT31;56185;48.526;9.044;2022-09-14T16:01:10;20.95;77.99
69084;SHT31;56185;48.526;9.044;2022-09-14T16:03:35;21.02;77.21
69084;SHT31;56185;48.526;9.044;2022-09-14T16:06:01;20.99;77.82
69084;SHT31;56185;48.526;9.044;2022-09-14T16:08:26;20.96;77.15
69084;SHT31;56185;48.526;9.044;2022-09-14T16:10:59;21.01;78.06
69084;SHT31;56185;48.526;9.044;2022-09-14T16:13:24;20.85;78.68
69084;SHT31;56185;48.526;9.044;2022-09-14T16:15:50;20.84;77.61
69084;SHT31;56185;48.526;9.044;2022-09-14T16:18:15;20.77;77.80
69084;SHT31;56185;48.526;9.044;2022-09-14T16:20:40;20.78;77.65
69084;SHT31;56185;48.526;9.044;2022-09-14T16:23:05;20.75;77.46
69084;SHT31;56185;48.526;9.044;2022-09-14T16:25:36;20.80;78.28
69084;SHT31;56185;48.526;9.044;2022-09-14T16:28:01;20.83;77.44
69084;SHT31;56185;48.526;9.044;2022-09-14T16:30:26;20.92;77.28
69084;SHT31;56185;48.526;9.044;2022-09-14T16:32:52;20.95;77.57
69084;SHT31;56185;48.526;9.044;2022-09-14T16:35:17;20.91;77.36
69084;SHT31;56185;48.526;9.044;2022-09-14T16:37:42;20.88;77.72
69084;SHT31;56185;48.526;9.044;2022-09-14T16:40:08;20.96;77.59
69084;SHT31;56185;48.526;9.044;2022-09-14T16:42:33;20.88;77.98
69084;SHT31;56185;48.526;9.044;2022-09-14T16:44:58;20.91;78.14
69084;SHT31;56185;48.526;9.044;2022-09-14T16:47:23;20.87;78.17
69084;SHT31;56185;48.526;9.044;2022-09-14T16:49:49;20.81;78.58
69084;SHT31;56185;48.526;9.044;2022-09-14T16:52:14;20.83;77.47
69084;SHT31;56185;48.526;9.044;2022-09-14T16:54:39;20.73;77.50
69084;SHT31;56185;48.526;9.044;2022-09-14T16:57:04;20.71;77.69
69084;SHT31;56185;48.526;9.044;2022-09-14T16:59:30;20.66;78.29
69084;SHT31;56185;48.526;9.044;2022-09-14T17:01:55;20.66;78.58
69084;SHT31;56185;48.526;9.044;2022-09-14T17:04:20;20.53;77.61
69084;SHT31;56185;48.526;9.044;2022-09-14T17:06:47;20.51;77.38
69084;SHT31;56185;48.526;9.044;2022-09-14T17:09:16;20.48;78.12
69084;SHT31;56185;48.526;9.044;2022-09-14T17:11:42;20.46;78.53
69084;SHT31;56185;48.526;9.044;2022-09-14T17:14:15;20.41;78.75
69084;SHT31;56185;48.526;9.044;2022-09-14T17:16:41;20.39;79.28
69084;SHT31;56185;48.526;9.044;2022-09-14T17:19:07;20.34;77.55
69084;SHT31;56185;48.526;9.044;2022-09-14T17:21:35;20.36;78.74
69084;SHT31;56185;48.526;9.044;2022-09-14T17:24:01;20.36;79.41
69084;SHT31;56185;48.526;9.044;2022-09-14T17:26:26;20.39;78.13
69084;SHT31;56185;48.526;9.044;2022-09-14T17:28:54;20.27;79.23
69084;SHT31;56185;48.526;9.044;2022-09-14T17:31:22;20.30;78.72
69084;SHT31;56185;48.526;9.044;2022-09-14T17:33:47;20.15;79.14
69084;SHT31;56185;48.526;9.044;2022-09-14T17:36:14;20.16;79.33
69084;SHT31;56185;48.526;9.044;2022-09-14T17:38:41;20.25;79.32
69084;SHT31;56185;48.526;9.044;2022-09-14T17:41:09;20.13;79.13
69084;SHT31;56185;48.526;9.044;2022-09-14T17:43:35;20.26;79.39
69084;SHT31;56185;48.526;9.044;2022-09-14T17:46:01;20.29;79.59